This is the latest recevied weather packets stored in our database for station/object K7NDG. If no packets are shown the sender has not sent any weather packets the latest 10 day(s).
| Time | Temp. | Humidity | Pressure | Rain* | Wind** | Luminosity | Snow |
|---|---|---|---|---|---|---|---|
| 1777345734 | 10.56° C | 81% | 1019.8 hPa | 0 mm | - | 0 W/m² | - |
| 1777345431 | 10.56° C | 81% | 1019.8 hPa | 0 mm | - | 1 W/m² | - |
| 1777345128 | 10.56° C | 80% | 1019.6 hPa | 0 mm | - | 1 W/m² | - |
| 1777344519 | 11.11° C | 80% | 1019.5 hPa | 0 mm | - | 2 W/m² | - |
| 1777343915 | 11.11° C | 79% | 1019.7 hPa | 0 mm | - | 4 W/m² | - |
| 1777343612 | 11.11° C | 79% | 1019.5 hPa | 0 mm | - | 5 W/m² | - |
| 1777343309 | 11.11° C | 79% | 1019.5 hPa | 0 mm | - | 10 W/m² | - |
| 1777342704 | 11.11° C | 79% | 1019.4 hPa | 0 mm | - | 20 W/m² | - |
| 1777342401 | 11.11° C | 79% | 1019.6 hPa | 0 mm | - | 23 W/m² | - |
| 1777342098 | 11.67° C | 78% | 1019.4 hPa | 0 mm | - | 27 W/m² | - |
| 1777341490 | 11.67° C | 78% | 1019.5 hPa | 0 mm | - | 31 W/m² | - |
| 1777340883 | 11.67° C | 78% | 1019.5 hPa | 0 mm | - | 37 W/m² | - |
| 1777339673 | 12.22° C | 76% | 1019.3 hPa | 0 mm | - | 34 W/m² | - |
| 1777339068 | 12.22° C | 75% | 1019.4 hPa | 0 mm | - | 49 W/m² | - |
| 1777337553 | 12.78° C | 73% | 1019.1 hPa | 0 mm | - | 95 W/m² | - |
| 1777336041 | 12.78° C | 76% | 1019 hPa | 0 mm | - | 88 W/m² | - |
| 1777335738 | 12.78° C | 76% | 1018.9 hPa | 0 mm | - | 93 W/m² | - |
| 1777334830 | 12.22° C | 76% | 1018.9 hPa | 0 mm | - | 119 W/m² | - |
| 1777333923 | 12.78° C | 76% | 1018.9 hPa | 0 mm | - | 83 W/m² | - |
| 1777329686 | 12.22° C | 75% | 1019 hPa | 0 mm | - | 223 W/m² | - |
| 1777313940 | 12.22° C | 83% | 1017.9 hPa | 1.27 mm | - | 141 W/m² | - |
| 1777313031 | 12.78° C | 82% | 1017.7 hPa | 0 mm | - | 110 W/m² | - |
| 1777312122 | 12.78° C | 83% | 1017.5 hPa | 0 mm | - | 158 W/m² | - |
| 1777311510 | 12.22° C | 86% | 1017.4 hPa | 0 mm | - | 220 W/m² | - |
| 1777311207 | 12.22° C | 86% | 1017.5 hPa | 0 mm | - | 241 W/m² | - |
* Rain latest hour (hover to see other rain measurements)
** Current wind speed in m/s (hover to see current wind gust speed)